Prestonsburg, Kentucky
Current Conditions -  °F | °C
As of 6:55 PM on Friday 24 Oct 2014 (Local Time) from KSJS Reporting Station
Clear Clear  
Wind Chill: 56°   Ceiling: Unl
Heat Index: 56°   Visibility: 10mi
Dew Point: 44°   Wind: 3mph
Humidity: 64%   Direction: 180°S
Pressure: 30.06"   Gusts: NA
Location:  37.67°N, 82.77°W
Report Text: KSJS 242255Z AUTO 18003KT 10SM CLR 13/07 A3006 RMK AO2 T01340066
Loading
Personal Weather Stations






























Interactive Weather Map
Tropical Storm Tracking
New forecast layout! Learn more

10-Day Weather Forecast

Advertisements
Track Severe Weather on mobile